Time;durP1;ratioP1;P1;durP2;ratioP2;P2;SDS_P1;SDS_P2;PMS_P1;PMS_P2;Temp;Humidity;BMP_temperature;BMP_pressure;BME280_temperature;BME280_humidity;BME280_pressure;Samples;Min_cycle;Max_cycle;Signal;HPM_P1;HPM_P2
2022/02/23 00:04:20;;;;;;;2.47;1.43;;;9.90;99.90;;;;;;10416946;28;20229;-82
2022/02/23 00:09:22;;;;;;;1.60;1.50;;;9.90;99.90;;;;;;10424543;28;20279;-83
2022/02/23 00:14:26;;;;;;;1.57;1.47;;;9.90;99.90;;;;;;10412105;28;20225;-83
2022/02/23 00:19:30;;;;;;;2.20;1.70;;;10.00;99.90;;;;;;10413564;28;20311;-84
2022/02/23 00:24:32;;;;;;;1.40;1.30;;;9.90;99.90;;;;;;10434337;28;20229;-83
2022/02/23 00:29:36;;;;;;;1.77;1.43;;;9.90;99.90;;;;;;10427845;28;20628;-84
2022/02/23 00:34:38;;;;;;;2.00;1.40;;;9.90;99.90;;;;;;10411617;28;20229;-83
2022/02/23 00:39:40;;;;;;;1.73;1.33;;;10.00;99.90;;;;;;10414087;28;20217;-82
2022/02/23 00:44:44;;;;;;;1.50;1.30;;;10.00;99.90;;;;;;10416108;28;20307;-84
2022/02/23 00:49:47;;;;;;;1.20;1.10;;;10.00;99.90;;;;;;10428716;28;20201;-83
2022/02/23 00:54:49;;;;;;;1.73;1.33;;;10.00;99.90;;;;;;10427758;28;20229;-83
2022/02/23 00:59:53;;;;;;;1.57;1.40;;;10.00;99.90;;;;;;10446116;28;20678;-82
2022/02/23 01:04:55;;;;;;;1.50;1.40;;;10.00;99.90;;;;;;10408889;28;20229;-83
2022/02/23 01:09:57;;;;;;;2.63;1.20;;;9.90;99.90;;;;;;10426680;28;20199;-84
2022/02/23 01:15:00;;;;;;;2.13;1.33;;;10.00;99.90;;;;;;10458807;28;20240;-84
2022/02/23 01:20:04;;;;;;;2.20;1.50;;;10.10;99.90;;;;;;10421658;28;20241;-83
2022/02/23 01:25:07;;;;;;;2.13;1.47;;;10.10;99.90;;;;;;10383698;28;20244;-84
2022/02/23 01:30:11;;;;;;;1.53;1.40;;;10.10;99.90;;;;;;10444787;28;20197;-83
2022/02/23 01:35:13;;;;;;;1.60;1.50;;;10.10;99.90;;;;;;10421939;28;20312;-83
2022/02/23 01:40:16;;;;;;;1.80;1.47;;;10.10;99.90;;;;;;10403249;28;20255;-84
2022/02/23 01:45:20;;;;;;;1.40;1.30;;;10.10;99.90;;;;;;10439410;28;20217;-82
2022/02/23 01:50:23;;;;;;;1.80;1.40;;;10.10;99.90;;;;;;10425587;28;20685;-83
2022/02/23 01:55:25;;;;;;;2.50;1.67;;;10.10;99.90;;;;;;10429723;28;20691;-85
2022/02/23 02:00:29;;;;;;;2.90;1.90;;;10.00;99.90;;;;;;10420671;28;20214;-84
2022/02/23 02:05:31;;;;;;;4.57;2.87;;;9.90;99.90;;;;;;10421578;28;20219;-83
2022/02/23 02:10:33;;;;;;;4.93;3.20;;;9.50;99.90;;;;;;10415117;28;20193;-84
2022/02/23 02:15:36;;;;;;;8.33;3.80;;;9.10;99.90;;;;;;10414930;28;20217;-84
2022/02/23 02:20:38;;;;;;;4.83;4.23;;;8.80;99.90;;;;;;10426747;28;20221;-83
2022/02/23 02:25:42;;;;;;;5.27;4.13;;;8.60;99.90;;;;;;10430503;28;20253;-82
2022/02/23 02:30:44;;;;;;;4.63;4.33;;;8.50;99.90;;;;;;10408695;28;20669;-83
2022/02/23 02:35:47;;;;;;;4.23;3.93;;;8.40;99.90;;;;;;10421496;28;20309;-82
2022/02/23 02:40:50;;;;;;;4.57;4.20;;;8.30;99.90;;;;;;10438230;28;20221;-83
2022/02/23 02:45:55;;;;;;;7.60;3.90;;;8.20;99.90;;;;;;10442069;28;20423;-82
2022/02/23 02:50:57;;;;;;;5.00;3.60;;;8.20;99.90;;;;;;10415666;28;20212;-82
2022/02/23 02:56:01;;;;;;;5.07;3.63;;;8.20;99.90;;;;;;10425386;28;20222;-83
2022/02/23 03:01:03;;;;;;;3.80;3.50;;;8.20;99.90;;;;;;10426319;28;20225;-81
2022/02/23 03:06:05;;;;;;;6.00;4.30;;;8.20;99.90;;;;;;10440237;28;20611;-81
2022/02/23 03:11:09;;;;;;;6.87;4.00;;;8.20;99.90;;;;;;10423394;28;20684;-82
2022/02/23 03:16:13;;;;;;;4.57;3.83;;;8.20;99.90;;;;;;10447140;28;20213;-84
2022/02/23 03:21:15;;;;;;;5.00;3.50;;;8.20;99.90;;;;;;10429945;28;20222;-84
2022/02/23 03:26:19;;;;;;;8.00;3.57;;;8.20;99.90;;;;;;10445211;28;20300;-81
2022/02/23 03:31:21;;;;;;;7.37;3.20;;;8.20;99.90;;;;;;10420840;28;20645;-81
2022/02/23 03:36:23;;;;;;;7.60;3.70;;;8.20;99.90;;;;;;10440887;28;20233;-83
2022/02/23 03:41:26;;;;;;;7.43;3.43;;;8.20;99.90;;;;;;10442389;28;20231;-81
2022/02/23 03:46:28;;;;;;;6.23;3.40;;;8.20;99.90;;;;;;10448964;28;20244;-82
2022/02/23 03:51:31;;;;;;;4.03;3.00;;;8.10;99.90;;;;;;10442979;28;20706;-83
2022/02/23 03:56:40;;;;;;;5.30;2.87;;;7.90;99.90;;;;;;10436893;28;20220;-82
2022/02/23 04:01:45;;;;;;;7.23;3.37;;;7.80;99.90;;;;;;10442191;28;20221;-81
2022/02/23 04:06:51;;;;;;;5.00;3.47;;;7.70;99.90;;;;;;10420208;28;20224;-82
2022/02/23 04:11:57;;;;;;;4.67;2.97;;;7.50;99.90;;;;;;10438257;28;20732;-82
2022/02/23 04:16:59;;;;;;;4.80;3.57;;;7.40;99.90;;;;;;10430915;28;20642;-83
2022/02/23 04:22:02;;;;;;;6.40;3.20;;;7.40;99.90;;;;;;10412098;28;20249;-83
2022/02/23 04:27:05;;;;;;;5.43;3.37;;;7.30;99.90;;;;;;10431316;28;20296;-82
2022/02/23 04:32:08;;;;;;;6.03;3.00;;;7.30;99.90;;;;;;10429128;28;20193;-84
2022/02/23 04:37:10;;;;;;;8.00;2.60;;;7.30;99.90;;;;;;10447635;28;20225;-84
2022/02/23 04:42:14;;;;;;;5.47;3.20;;;7.40;99.90;;;;;;10438136;28;20712;-83
2022/02/23 04:47:16;;;;;;;3.33;2.87;;;7.50;99.90;;;;;;10428902;28;20344;-83
2022/02/23 04:52:18;;;;;;;4.63;2.13;;;7.50;99.90;;;;;;10446583;28;20247;-83
2022/02/23 04:57:22;;;;;;;3.53;3.00;;;7.50;99.90;;;;;;10423488;28;20222;-83
2022/02/23 05:02:24;;;;;;;5.93;2.83;;;7.50;99.90;;;;;;10436515;28;20229;-81
2022/02/23 05:07:26;;;;;;;8.70;2.97;;;7.40;99.90;;;;;;10423603;28;20412;-82
2022/02/23 05:12:30;;;;;;;8.53;2.70;;;7.40;99.90;;;;;;10439593;28;20277;-83
2022/02/23 05:17:33;;;;;;;9.80;3.50;;;7.40;99.90;;;;;;10416393;28;20723;-83
2022/02/23 05:22:35;;;;;;;5.63;2.70;;;7.40;99.90;;;;;;10426111;28;20624;-82
2022/02/23 05:27:39;;;;;;;8.57;4.50;;;7.30;99.90;;;;;;10443577;28;20751;-83
2022/02/23 05:32:42;;;;;;;11.13;3.93;;;7.20;99.90;;;;;;10447725;28;20198;-82
2022/02/23 05:37:44;;;;;;;6.37;3.70;;;7.10;99.90;;;;;;10452352;28;20226;-82
2022/02/23 05:42:48;;;;;;;7.37;3.80;;;7.00;99.90;;;;;;10412335;28;20229;-81
2022/02/23 05:47:50;;;;;;;8.47;3.53;;;7.00;99.90;;;;;;10426713;28;20221;-80
2022/02/23 05:52:57;;;;;;;9.13;3.20;;;7.00;99.90;;;;;;10460364;28;20284;-81
2022/02/23 05:58:01;;;;;;;8.70;3.40;;;6.80;99.90;;;;;;10436887;28;20307;-82
2022/02/23 06:03:06;;;;;;;7.83;4.10;;;6.80;99.90;;;;;;10453033;28;20301;-79
2022/02/23 06:08:09;;;;;;;4.03;2.70;;;6.80;99.90;;;;;;10434201;28;20221;-79
2022/02/23 06:13:12;;;;;;;5.80;3.30;;;6.70;99.90;;;;;;10441945;28;20194;-80
2022/02/23 06:18:14;;;;;;;7.10;3.40;;;6.60;99.90;;;;;;10447499;28;20232;-80
2022/02/23 06:23:17;;;;;;;14.30;4.07;;;6.60;99.90;;;;;;10444864;28;20320;-80
2022/02/23 06:28:21;;;;;;;9.90;4.07;;;6.60;99.90;;;;;;10442511;28;20765;-80
2022/02/23 06:33:25;;;;;;;7.13;4.40;;;6.60;99.90;;;;;;10429686;28;20197;-79
2022/02/23 06:38:50;;;;;;;6.53;3.57;;;6.60;99.90;;;;;;10441264;28;20247;-81
2022/02/23 06:44:11;;;;;;;11.50;3.83;;;6.50;99.90;;;;;;10433213;28;20308;-81
2022/02/23 06:49:13;;;;;;;10.20;4.13;;;6.60;99.90;;;;;;10474719;28;20193;-80
2022/02/23 06:54:17;;;;;;;4.70;3.43;;;6.60;99.90;;;;;;10471375;28;20248;-82
2022/02/23 06:59:23;;;;;;;4.67;3.60;;;6.60;99.90;;;;;;10442399;28;20209;-82
2022/02/23 07:04:25;;;;;;;4.93;3.23;;;6.60;99.90;;;;;;10426050;28;20288;-82
2022/02/23 07:09:27;;;;;;;5.20;3.30;;;6.60;99.90;;;;;;10422547;28;20601;-82
2022/02/23 07:14:31;;;;;;;3.97;3.30;;;6.60;99.90;;;;;;10426077;28;20227;-82
2022/02/23 07:19:34;;;;;;;8.07;3.40;;;6.70;99.90;;;;;;10451459;28;20392;-80
2022/02/23 07:24:37;;;;;;;9.23;4.50;;;6.70;99.90;;;;;;10420521;28;20239;-82
2022/02/23 07:29:45;;;;;;;5.93;4.90;;;6.80;99.90;;;;;;10432340;28;20713;-81
2022/02/23 07:34:49;;;;;;;4.90;4.40;;;6.80;99.90;;;;;;10424323;28;20474;-80
2022/02/23 07:39:54;;;;;;;7.10;4.13;;;6.90;99.90;;;;;;10424639;28;20472;-81
2022/02/23 07:44:58;;;;;;;5.80;4.13;;;6.90;99.90;;;;;;10430195;28;20232;-82
2022/02/23 07:50:00;;;;;;;11.23;5.43;;;6.90;99.90;;;;;;10458699;28;20220;-82
2022/02/23 07:55:03;;;;;;;7.57;4.83;;;6.90;99.90;;;;;;10450630;28;20217;-82
2022/02/23 08:00:09;;;;;;;9.93;4.10;;;6.90;99.90;;;;;;10450853;28;20600;-82
2022/02/23 08:05:15;;;;;;;8.33;5.70;;;6.90;99.90;;;;;;10422769;28;20225;-82
2022/02/23 08:10:17;;;;;;;8.70;5.00;;;7.00;99.90;;;;;;10425204;28;20243;-82
2022/02/23 08:20:41;;;;;;;17.93;5.63;;;7.20;99.90;;;;;;10446594;28;20227;-82
2022/02/23 08:25:43;;;;;;;12.97;6.30;;;7.30;99.90;;;;;;10438403;28;20221;-81
2022/02/23 08:30:47;;;;;;;9.97;6.00;;;7.40;99.90;;;;;;10451073;28;20260;-81
2022/02/23 08:35:49;;;;;;;11.43;6.50;;;7.60;99.90;;;;;;10444156;28;20279;-83
2022/02/23 08:40:51;;;;;;;13.03;7.50;;;7.70;99.90;;;;;;10439943;28;20248;-83
2022/02/23 08:45:55;;;;;;;11.23;6.57;;;7.80;99.90;;;;;;10451192;28;20651;-83
2022/02/23 08:50:57;;;;;;;6.83;6.10;;;8.00;99.90;;;;;;10422501;28;20202;-81
2022/02/23 08:55:59;;;;;;;9.30;6.30;;;8.10;99.90;;;;;;10422492;28;20221;-81
2022/02/23 09:01:03;;;;;;;6.20;5.23;;;8.30;99.90;;;;;;10457655;28;20214;-82
2022/02/23 09:06:05;;;;;;;6.47;5.87;;;8.50;99.90;;;;;;10452295;28;20241;-81
2022/02/23 09:11:07;;;;;;;12.80;6.90;;;8.70;99.90;;;;;;10443630;28;20201;-81
2022/02/23 09:16:11;;;;;;;10.97;5.97;;;9.00;99.90;;;;;;10436678;28;20245;-83
2022/02/23 09:21:13;;;;;;;6.30;3.80;;;9.30;99.90;;;;;;10403745;28;20705;-84
2022/02/23 09:26:18;;;;;;;4.90;3.10;;;9.40;99.90;;;;;;10454776;28;20307;-84
2022/02/23 09:31:22;;;;;;;6.13;3.30;;;9.50;99.90;;;;;;10430847;28;20198;-82
2022/02/23 09:36:25;;;;;;;6.80;3.60;;;9.70;99.90;;;;;;10429503;28;20275;-84
2022/02/23 09:41:27;;;;;;;3.90;2.67;;;9.80;99.90;;;;;;10414480;28;20784;-83
2022/02/23 09:46:31;;;;;;;6.60;2.60;;;9.90;99.90;;;;;;10428694;28;20669;-83
2022/02/23 09:51:33;;;;;;;5.30;2.77;;;10.00;99.90;;;;;;10459043;28;20205;-84
2022/02/23 09:56:35;;;;;;;4.20;2.10;;;10.00;99.90;;;;;;10455495;28;20685;-84
2022/02/23 10:01:40;;;;;;;4.77;2.90;;;10.00;99.90;;;;;;10426846;28;20559;-84
2022/02/23 10:06:43;;;;;;;6.20;3.10;;;10.00;99.90;;;;;;10442130;28;20217;-84
2022/02/23 10:11:48;;;;;;;4.83;2.47;;;10.20;99.90;;;;;;10398534;28;20264;-83
2022/02/23 10:16:52;;;;;;;4.13;2.50;;;10.40;99.90;;;;;;10418631;28;20217;-82
2022/02/23 10:21:57;;;;;;;5.60;2.13;;;10.50;99.90;;;;;;10438191;28;20228;-81
2022/02/23 10:27:03;;;;;;;4.40;2.20;;;10.70;99.90;;;;;;10423029;28;20477;-82
2022/02/23 10:32:12;;;;;;;5.30;2.30;;;10.90;99.90;;;;;;10459872;28;20197;-82
2022/02/23 10:37:16;;;;;;;3.03;2.30;;;11.00;99.90;;;;;;10425714;28;20236;-82
2022/02/23 10:42:20;;;;;;;2.47;1.93;;;11.00;99.90;;;;;;10426155;28;20232;-82
2022/02/23 10:47:29;;;;;;;4.30;2.20;;;11.00;99.90;;;;;;10420114;28;20259;-82
2022/02/23 10:52:32;;;;;;;5.27;2.80;;;11.00;99.90;;;;;;10445219;28;20197;-82
2022/02/23 10:57:34;;;;;;;2.70;2.20;;;10.90;99.90;;;;;;10451200;28;20565;-82
2022/02/23 11:02:38;;;;;;;9.47;3.20;;;10.80;99.90;;;;;;10450453;28;20581;-82
2022/02/23 11:07:42;;;;;;;3.83;2.50;;;10.70;99.90;;;;;;10444650;28;20217;-82
2022/02/23 11:12:46;;;;;;;2.73;1.90;;;10.70;99.90;;;;;;10438156;28;20201;-82
2022/02/23 11:17:52;;;;;;;2.63;2.20;;;10.70;99.90;;;;;;10443111;28;20252;-82
2022/02/23 11:22:56;;;;;;;5.80;2.40;;;10.70;99.90;;;;;;10424981;28;20315;-82
2022/02/23 11:28:05;;;;;;;4.30;2.23;;;10.70;99.90;;;;;;10405052;28;20599;-82
2022/02/23 11:33:09;;;;;;;3.37;2.43;;;10.70;99.90;;;;;;10422420;28;20193;-82
2022/02/23 11:38:11;;;;;;;6.63;2.17;;;10.80;99.90;;;;;;10420259;28;20220;-82
2022/02/23 11:43:30;;;;;;;5.20;2.47;;;10.80;99.90;;;;;;10420259;28;20279;-82
2022/02/23 11:49:05;;;;;;;2.20;2.10;;;10.80;99.90;;;;;;10406920;28;20213;-82
2022/02/23 11:54:26;;;;;;;4.30;2.37;;;10.70;99.90;;;;;;10432914;28;20304;-82
2022/02/23 12:00:06;;;;;;;2.47;2.27;;;10.70;99.90;;;;;;10454521;28;20212;-83
2022/02/23 12:05:37;;;;;;;6.80;2.47;;;10.70;99.90;;;;;;10438260;28;20212;-84
2022/02/23 12:10:43;;;;;;;7.57;2.77;;;10.70;99.90;;;;;;10431957;28;20193;-84
2022/02/23 12:15:54;;;;;;;7.23;3.03;;;10.90;99.90;;;;;;10437015;28;20213;-84
2022/02/23 12:21:01;;;;;;;7.77;2.60;;;11.00;99.90;;;;;;10426002;28;20241;-84
2022/02/23 12:26:26;;;;;;;5.57;2.20;;;11.10;99.90;;;;;;10419161;28;20235;-83
2022/02/23 12:31:45;;;;;;;5.90;2.60;;;11.10;99.90;;;;;;10399622;28;20284;-84
2022/02/23 12:36:59;;;;;;;3.27;2.37;;;11.10;99.90;;;;;;10420934;28;20220;-84
2022/02/23 12:42:07;;;;;;;6.23;2.63;;;11.10;99.90;;;;;;10471583;28;20556;-84
2022/02/23 12:47:17;;;;;;;7.60;2.50;;;11.10;99.90;;;;;;10443528;28;20221;-83
2022/02/23 12:52:26;;;;;;;2.40;2.20;;;11.10;99.90;;;;;;10458947;28;20293;-84
2022/02/23 12:57:31;;;;;;;4.23;2.17;;;11.10;99.90;;;;;;10438832;28;20244;-81
2022/02/23 13:02:33;;;;;;;4.43;2.43;;;11.10;99.90;;;;;;10421995;28;20217;-80
2022/02/23 13:07:39;;;;;;;4.20;2.50;;;11.20;99.90;;;;;;10426875;28;20356;-82
2022/02/23 13:12:44;;;;;;;4.63;2.33;;;11.20;99.90;;;;;;10463748;28;20193;-81
2022/02/23 13:17:47;;;;;;;4.07;2.33;;;11.20;99.90;;;;;;10462427;28;20220;-82
2022/02/23 13:22:50;;;;;;;3.10;2.10;;;11.30;99.90;;;;;;10427038;28;20240;-81
2022/02/23 13:27:53;;;;;;;3.07;2.20;;;11.30;99.90;;;;;;10412607;28;20218;-82
2022/02/23 13:33:00;;;;;;;3.40;2.50;;;11.30;99.90;;;;;;10414537;28;20194;-81
2022/02/23 13:38:08;;;;;;;8.43;2.90;;;11.30;99.90;;;;;;10433582;28;20217;-81
2022/02/23 13:43:11;;;;;;;2.90;1.80;;;11.30;99.90;;;;;;10442174;28;20299;-81
2022/02/23 13:48:15;;;;;;;6.87;2.17;;;11.50;98.70;;;;;;10437566;28;20414;-81
2022/02/23 13:59:31;;;;;;;6.30;1.97;;;11.60;99.90;;;;;;10352774;28;20304;-82
2022/02/23 14:04:38;;;;;;;4.63;2.20;;;11.60;99.30;;;;;;10441748;28;20693;-82
2022/02/23 14:09:42;;;;;;;6.10;2.53;;;11.70;99.90;;;;;;10425267;28;20661;-82
2022/02/23 14:14:46;;;;;;;3.73;2.27;;;11.70;99.90;;;;;;10461544;28;20303;-83
2022/02/23 14:19:53;;;;;;;5.87;2.70;;;11.70;99.90;;;;;;10463179;28;20231;-82
2022/02/23 14:25:02;;;;;;;4.30;2.47;;;11.60;99.90;;;;;;10468763;22;20229;-83
2022/02/23 14:30:05;;;;;;;4.17;2.20;;;11.60;99.90;;;;;;10429675;28;20239;-84
2022/02/23 14:35:11;;;;;;;5.70;2.63;;;11.70;99.90;;;;;;10429577;28;20213;-85
2022/02/23 14:40:17;;;;;;;4.90;1.67;;;11.70;99.90;;;;;;10425326;28;20255;-84
2022/02/23 14:45:21;;;;;;;4.90;2.13;;;11.60;99.90;;;;;;10414528;28;20240;-85
2022/02/23 14:50:25;;;;;;;5.33;2.10;;;11.60;99.90;;;;;;10428177;28;20609;-84
2022/02/23 14:55:29;;;;;;;2.70;2.20;;;11.50;99.90;;;;;;10421844;28;20220;-83
2022/02/23 15:00:31;;;;;;;3.33;2.00;;;11.60;99.90;;;;;;10444258;28;20197;-85
2022/02/23 15:05:35;;;;;;;3.17;1.90;;;11.70;98.40;;;;;;10438638;28;20221;-83
2022/02/23 15:10:40;;;;;;;3.03;1.97;;;11.80;98.50;;;;;;10422180;28;20200;-84
2022/02/23 15:15:43;;;;;;;8.60;3.00;;;11.80;98.80;;;;;;10434977;28;20224;-83
2022/02/23 15:20:45;;;;;;;8.87;2.70;;;11.80;99.90;;;;;;10412335;28;20201;-82
2022/02/23 15:25:49;;;;;;;4.13;1.90;;;11.80;99.90;;;;;;10418840;28;20308;-83
2022/02/23 15:30:52;;;;;;;4.00;1.97;;;11.70;99.90;;;;;;10439997;28;20200;-83
2022/02/23 15:35:54;;;;;;;9.77;3.00;;;11.60;99.90;;;;;;10413071;28;20727;-84
2022/02/23 15:40:57;;;;;;;13.10;2.60;;;11.60;99.90;;;;;;10436530;28;20205;-86
2022/02/23 15:46:01;;;;;;;7.80;2.77;;;11.70;99.90;;;;;;10438920;28;20236;-82
2022/02/23 15:51:03;;;;;;;4.33;2.10;;;11.70;99.90;;;;;;10393263;28;20200;-83
2022/02/23 15:56:07;;;;;;;6.13;1.90;;;11.70;99.90;;;;;;10408802;28;20246;-83
2022/02/23 16:01:11;;;;;;;2.47;1.70;;;11.70;99.60;;;;;;10417793;28;20215;-83
2022/02/23 16:06:14;;;;;;;7.00;2.43;;;11.70;99.10;;;;;;10428189;28;20221;-82
2022/02/23 16:11:18;;;;;;;5.50;2.40;;;11.70;99.20;;;;;;10436168;28;20222;-83
2022/02/23 16:16:21;;;;;;;5.00;2.27;;;11.60;99.70;;;;;;10428140;28;20213;-83
2022/02/23 16:21:23;;;;;;;4.47;2.07;;;11.60;99.50;;;;;;10409783;28;20742;-86
2022/02/23 16:26:27;;;;;;;2.50;1.47;;;11.50;99.50;;;;;;10392998;28;20313;-86
2022/02/23 16:31:29;;;;;;;2.73;2.10;;;11.30;99.90;;;;;;10376809;28;20263;-86
2022/02/23 16:36:31;;;;;;;7.60;2.40;;;11.20;99.90;;;;;;10374776;28;20214;-85
2022/02/23 16:41:37;;;;;;;2.30;1.97;;;11.10;99.90;;;;;;10424240;28;20212;-82
2022/02/23 16:46:41;;;;;;;4.17;1.90;;;11.00;99.90;;;;;;10448416;28;20210;-85
2022/02/23 16:51:43;;;;;;;5.13;2.93;;;10.80;99.90;;;;;;10392027;28;20225;-84
2022/02/23 16:56:47;;;;;;;2.70;2.30;;;10.70;99.90;;;;;;10396236;28;20245;-83
2022/02/23 17:01:49;;;;;;;5.13;2.70;;;10.60;99.90;;;;;;10391900;28;20217;-83
2022/02/23 17:06:52;;;;;;;5.27;2.67;;;10.40;99.90;;;;;;10406168;28;20258;-83
2022/02/23 17:11:56;;;;;;;5.87;2.57;;;10.30;99.90;;;;;;10400417;28;20205;-83
2022/02/23 17:16:58;;;;;;;3.93;2.07;;;10.20;99.90;;;;;;10392132;28;20222;-82
2022/02/23 17:22:00;;;;;;;4.20;2.90;;;10.10;99.90;;;;;;10436088;28;20301;-82
2022/02/23 17:27:04;;;;;;;7.70;2.73;;;10.00;99.90;;;;;;10413640;28;20233;-83
2022/02/23 17:32:07;;;;;;;3.90;2.67;;;9.90;99.90;;;;;;10391490;28;20571;-83
2022/02/23 17:37:09;;;;;;;6.97;2.87;;;9.80;99.90;;;;;;10441076;28;20217;-82
2022/02/23 17:42:13;;;;;;;45.60;19.33;;;9.70;99.90;;;;;;10427165;28;20238;-83
2022/02/23 17:47:15;;;;;;;9.60;5.53;;;9.70;99.90;;;;;;10436901;28;20228;-83
2022/02/23 17:52:21;;;;;;;5.97;4.20;;;9.50;99.90;;;;;;10395245;28;20228;-84
2022/02/23 17:57:25;;;;;;;8.87;4.37;;;9.50;99.90;;;;;;10436521;28;20217;-83
2022/02/23 18:02:29;;;;;;;6.33;4.40;;;9.50;99.90;;;;;;10411409;28;20224;-85
2022/02/23 18:07:31;;;;;;;5.90;4.30;;;9.40;99.90;;;;;;10400609;28;20340;-83
2022/02/23 18:12:35;;;;;;;5.43;4.83;;;9.30;99.90;;;;;;10413600;28;20352;-84
2022/02/23 18:17:37;;;;;;;5.33;4.43;;;9.30;99.90;;;;;;10405564;28;20974;-84
2022/02/23 18:22:40;;;;;;;8.77;6.73;;;9.20;99.90;;;;;;10411271;28;20209;-84
2022/02/23 18:27:43;;;;;;;5.60;3.73;;;9.20;99.90;;;;;;10419311;28;20302;-85
2022/02/23 18:32:45;;;;;;;8.37;4.40;;;9.10;99.90;;;;;;10425590;28;20217;-84
2022/02/23 18:37:48;;;;;;;5.07;2.97;;;9.00;99.90;;;;;;10420626;28;20308;-84
2022/02/23 18:42:51;;;;;;;3.40;3.00;;;9.00;99.90;;;;;;10441133;28;20617;-85
2022/02/23 18:47:53;;;;;;;6.67;3.07;;;9.00;99.90;;;;;;10415103;28;20232;-83
2022/02/23 18:52:55;;;;;;;8.57;7.00;;;8.90;99.90;;;;;;10406899;28;20193;-85
2022/02/23 18:58:02;;;;;;;6.90;4.97;;;8.90;99.90;;;;;;10428444;28;20217;-86
2022/02/23 19:03:07;;;;;;;8.87;6.87;;;8.80;99.90;;;;;;10420891;28;20205;-85
2022/02/23 19:08:10;;;;;;;9.23;5.77;;;8.80;99.90;;;;;;10409033;28;20317;-83
2022/02/23 19:13:13;;;;;;;5.37;4.53;;;8.80;99.90;;;;;;10415062;28;20205;-85
2022/02/23 19:18:21;;;;;;;5.23;4.70;;;8.70;99.90;;;;;;10402818;28;20227;-86
2022/02/23 19:23:23;;;;;;;5.00;4.60;;;8.70;99.90;;;;;;10420728;28;20240;-86
2022/02/23 19:28:31;;;;;;;5.50;4.70;;;8.60;99.90;;;;;;10427804;28;20660;-85
2022/02/23 19:33:42;;;;;;;5.53;4.70;;;8.60;99.90;;;;;;10405105;28;20586;-86
2022/02/23 19:38:44;;;;;;;4.63;4.33;;;8.50;99.90;;;;;;10426911;28;20244;-85
2022/02/23 19:43:51;;;;;;;7.60;4.40;;;8.50;99.90;;;;;;10432790;28;20688;-85
2022/02/23 19:48:53;;;;;;;5.90;5.10;;;8.60;99.90;;;;;;10405543;28;20252;-84
2022/02/23 19:53:56;;;;;;;5.23;4.40;;;8.50;99.90;;;;;;10429187;28;20198;-84
2022/02/23 19:59:00;;;;;;;5.07;4.57;;;8.50;99.90;;;;;;10413609;28;20198;-85
2022/02/23 20:04:03;;;;;;;5.00;4.60;;;8.50;99.90;;;;;;10430993;28;20292;-85
2022/02/23 20:09:06;;;;;;;9.40;7.10;;;8.50;99.90;;;;;;10414457;28;20198;-84
2022/02/23 20:14:10;;;;;;;11.40;6.90;;;8.40;99.90;;;;;;10392505;28;20208;-84
2022/02/23 20:19:13;;;;;;;8.17;5.43;;;8.40;99.90;;;;;;10425127;28;20212;-83
2022/02/23 20:24:16;;;;;;;4.40;4.03;;;8.40;99.90;;;;;;10434694;28;20251;-83
2022/02/23 20:29:19;;;;;;;5.50;3.27;;;8.30;99.90;;;;;;10384614;28;20918;-83
2022/02/23 20:34:21;;;;;;;4.63;3.10;;;8.30;99.90;;;;;;10425320;28;20300;-83
2022/02/23 20:39:24;;;;;;;3.83;3.30;;;8.30;99.90;;;;;;10420577;28;20202;-83
2022/02/23 20:44:28;;;;;;;5.73;3.00;;;8.20;99.90;;;;;;10414947;28;20230;-83
2022/02/23 20:49:30;;;;;;;5.50;2.70;;;8.20;99.90;;;;;;10401478;28;20212;-84
2022/02/23 20:54:32;;;;;;;3.07;2.87;;;8.10;99.90;;;;;;10388405;28;20225;-84
2022/02/23 20:59:36;;;;;;;2.70;2.53;;;8.10;99.90;;;;;;10431755;28;20202;-83
2022/02/23 21:04:38;;;;;;;3.20;2.90;;;8.00;99.90;;;;;;10410419;28;20684;-84
2022/02/23 21:09:40;;;;;;;3.73;3.40;;;8.00;99.90;;;;;;10420234;28;20229;-84
2022/02/23 21:14:44;;;;;;;4.80;3.20;;;7.90;99.90;;;;;;10444802;28;20217;-83
2022/02/23 21:19:54;;;;;;;3.53;3.20;;;7.90;99.90;;;;;;10416718;28;20201;-83
2022/02/23 21:24:56;;;;;;;5.30;3.60;;;7.80;99.90;;;;;;10413004;28;20269;-85
2022/02/23 21:30:00;;;;;;;3.97;3.00;;;7.80;99.90;;;;;;10425264;28;20233;-84
2022/02/23 21:35:02;;;;;;;2.87;2.63;;;7.80;99.90;;;;;;10391484;28;20327;-85
2022/02/23 21:40:06;;;;;;;3.10;2.80;;;7.80;99.90;;;;;;10415131;28;20291;-84
2022/02/23 21:45:10;;;;;;;3.60;2.73;;;7.80;99.90;;;;;;10386839;28;20238;-85
2022/02/23 21:50:12;;;;;;;3.23;2.93;;;7.80;99.90;;;;;;10428165;28;20259;-83
2022/02/23 21:55:14;;;;;;;3.67;3.37;;;7.80;99.90;;;;;;10397249;28;20693;-83
2022/02/23 22:00:18;;;;;;;3.27;3.00;;;7.80;99.90;;;;;;10412218;28;20228;-84
2022/02/23 22:05:23;;;;;;;4.10;3.70;;;7.90;99.90;;;;;;10397687;28;20226;-83
2022/02/23 22:10:25;;;;;;;3.97;3.40;;;7.90;99.90;;;;;;10400715;28;20209;-83
2022/02/23 22:15:29;;;;;;;3.93;3.63;;;8.00;99.90;;;;;;10420622;28;20213;-83
2022/02/23 22:20:31;;;;;;;3.70;3.40;;;8.10;99.90;;;;;;10405718;28;20254;-85
2022/02/23 22:25:34;;;;;;;3.70;3.40;;;8.10;99.90;;;;;;10402866;28;20225;-85
2022/02/23 22:30:37;;;;;;;4.77;3.30;;;8.10;99.90;;;;;;10426478;28;20214;-85
2022/02/23 22:35:39;;;;;;;3.90;3.50;;;8.10;99.90;;;;;;10415931;28;20225;-85
2022/02/23 22:40:42;;;;;;;4.33;3.47;;;8.00;99.90;;;;;;10436431;28;20236;-85
2022/02/23 22:45:46;;;;;;;3.33;3.03;;;8.00;99.90;;;;;;10423580;28;20225;-83
2022/02/23 22:50:48;;;;;;;6.50;4.60;;;7.90;99.90;;;;;;10428177;28;20201;-83
2022/02/23 22:55:50;;;;;;;5.80;5.23;;;8.00;99.90;;;;;;10393757;28;20222;-84
2022/02/23 23:00:55;;;;;;;6.20;5.20;;;8.00;99.90;;;;;;10388587;28;20210;-84
2022/02/23 23:06:14;;;;;;;4.67;4.20;;;8.10;99.90;;;;;;10403781;28;20316;-85
2022/02/23 23:11:20;;;;;;;5.00;3.70;;;8.10;99.90;;;;;;10402412;28;20756;-85
2022/02/23 23:16:24;;;;;;;4.57;4.17;;;8.00;99.90;;;;;;10414161;28;20599;-85
2022/02/23 23:21:26;;;;;;;4.30;3.90;;;7.80;99.90;;;;;;10377842;28;20309;-85
2022/02/23 23:26:29;;;;;;;5.10;4.60;;;7.80;99.90;;;;;;10399050;28;20253;-85
2022/02/23 23:31:32;;;;;;;4.60;4.17;;;7.80;99.90;;;;;;10411191;28;20838;-87
2022/02/23 23:36:35;;;;;;;4.87;4.47;;;7.80;99.90;;;;;;10385594;28;20269;-83
2022/02/23 23:41:37;;;;;;;3.87;3.50;;;7.90;99.90;;;;;;10393940;28;20233;-83
2022/02/23 23:46:40;;;;;;;4.97;4.43;;;7.90;99.90;;;;;;10414755;28;20260;-84
2022/02/23 23:51:42;;;;;;;4.40;4.00;;;7.90;99.90;;;;;;10378689;28;20193;-83
2022/02/23 23:56:44;;;;;;;4.70;3.93;;;7.90;99.90;;;;;;10410946;28;20221;-83
